BEL78B EBBR-GMAD
Flight info
| Callsign | BEL78B |
|---|---|
| Flight time | 3h 37m |
| Altitude | 35000 |
| Route | CIV N872 LESDO DCT KOVIN DCT DUCRA UM728 RESMI UN857 DISAK DCT ARKIP DCT ARNAV DCT LMG DCT UVELI DCT OSMOB DCT ARVID DCT PPN DCT NOLSA N857 BAN DCT PINAR DCT CJN DCT INTAX DCT NASOS DCT ANZAN DCT BLN DCT MGA/N0444F370 DCT PIMOS DCT GALTO UN869 PELAX UB11 MAK UG850 OLOMA |
| Aircraft | A320/M-SDE3FGHIRWY/LB1 |
Departure
| Time | 2026-05-07 10:28 |
|---|---|
| Airport | Brussels Airport (EBBR) |
Arrival
| Time | 2026-05-07 14:06 |
|---|---|
| Airport | Al Massira Airport (GMAD) |
| Time | Latitude | Longitude | Altitude | Speed | Heading |
|---|---|---|---|---|---|
| 2026-05-07 10:05 | 50.90069 | 4.48744 | 131 ft | 0 kts | 155° |
| 2026-05-07 10:21 | 50.90076 | 4.48739 | 130 ft | 4 kts | 154° |
| 2026-05-07 10:21 | 50.90099 | 4.48719 | 129 ft | 4 kts | 146° |
| 2026-05-07 10:21 | 50.90120 | 4.48693 | 128 ft | 4 kts | 131° |
| 2026-05-07 10:21 | 50.90133 | 4.48659 | 123 ft | 4 kts | 82° |
| 2026-05-07 10:22 | 50.90130 | 4.48643 | 123 ft | 1 kts | 65° |
| 2026-05-07 10:22 | 50.90130 | 4.48642 | 127 ft | 0 kts | 65° |
| 2026-05-07 10:23 | 50.90131 | 4.48646 | 122 ft | 3 kts | 65° |
| 2026-05-07 10:24 | 50.90168 | 4.48779 | 126 ft | 18 kts | 66° |
| 2026-05-07 10:24 | 50.90220 | 4.48959 | 127 ft | 18 kts | 66° |
| 2026-05-07 10:24 | 50.90265 | 4.49115 | 126 ft | 12 kts | 66° |
| 2026-05-07 10:24 | 50.90298 | 4.49228 | 126 ft | 10 kts | 65° |
| 2026-05-07 10:25 | 50.90325 | 4.49322 | 126 ft | 9 kts | 65° |
| 2026-05-07 10:25 | 50.90352 | 4.49416 | 125 ft | 9 kts | 65° |
| 2026-05-07 10:25 | 50.90380 | 4.49512 | 119 ft | 11 kts | 64° |
| 2026-05-07 10:25 | 50.90447 | 4.49587 | 122 ft | 13 kts | 15° |
| 2026-05-07 10:26 | 50.90540 | 4.49624 | 120 ft | 14 kts | 14° |
| 2026-05-07 10:26 | 50.90635 | 4.49663 | 124 ft | 14 kts | 14° |
| 2026-05-07 10:26 | 50.90733 | 4.49704 | 121 ft | 15 kts | 15° |
| 2026-05-07 10:26 | 50.90834 | 4.49746 | 121 ft | 15 kts | 14° |
| 2026-05-07 10:27 | 50.90936 | 4.49807 | 121 ft | 16 kts | 25° |
| 2026-05-07 10:27 | 50.91036 | 4.49911 | 118 ft | 14 kts | 28° |
| 2026-05-07 10:27 | 50.91118 | 4.49942 | 117 ft | 12 kts | 340° |
| 2026-05-07 10:27 | 50.91126 | 4.49849 | 116 ft | 10 kts | 248° |
| 2026-05-07 10:28 | 50.91038 | 4.49540 | 118 ft | 68 kts | 245° |
| 2026-05-07 10:28 | 50.90731 | 4.48482 | 120 ft | 140 kts | 246° |
| 2026-05-07 10:28 | 50.90256 | 4.46826 | 321 ft | 175 kts | 245° |
| 2026-05-07 10:28 | 50.89781 | 4.45091 | 1178 ft | 172 kts | 262° |
| 2026-05-07 10:29 | 50.90013 | 4.43287 | 1943 ft | 170 kts | 299° |
| 2026-05-07 10:29 | 50.90453 | 4.41548 | 2505 ft | 172 kts | 280° |
| 2026-05-07 10:29 | 50.90576 | 4.39660 | 3033 ft | 173 kts | 277° |
| 2026-05-07 10:30 | 50.90772 | 4.35589 | 3674 ft | 205 kts | 276° |
| 2026-05-07 10:30 | 50.90869 | 4.33200 | 3902 ft | 231 kts | 271° |
| 2026-05-07 10:30 | 50.90444 | 4.30687 | 4186 ft | 255 kts | 237° |
| 2026-05-07 10:30 | 50.89187 | 4.28600 | 4708 ft | 268 kts | 222° |
| 2026-05-07 10:31 | 50.87786 | 4.26608 | 5457 ft | 273 kts | 222° |
| 2026-05-07 10:31 | 50.86368 | 4.24590 | 6245 ft | 275 kts | 222° |
| 2026-05-07 10:31 | 50.84941 | 4.22554 | 6994 ft | 278 kts | 222° |
| 2026-05-07 10:31 | 50.83501 | 4.20491 | 7719 ft | 281 kts | 222° |
| 2026-05-07 10:32 | 50.82041 | 4.18400 | 8445 ft | 284 kts | 222° |
| 2026-05-07 10:32 | 50.80571 | 4.16295 | 9155 ft | 287 kts | 222° |
| 2026-05-07 10:32 | 50.79087 | 4.14168 | 9844 ft | 290 kts | 222° |
| 2026-05-07 10:32 | 50.77576 | 4.12006 | 10390 ft | 300 kts | 223° |
| 2026-05-07 10:33 | 50.75974 | 4.09711 | 10556 ft | 322 kts | 223° |
| 2026-05-07 10:33 | 50.74268 | 4.07268 | 10863 ft | 337 kts | 223° |
| 2026-05-07 10:33 | 50.73109 | 4.05612 | 11233 ft | 341 kts | 223° |
| 2026-05-07 10:33 | 50.70740 | 4.02225 | 12101 ft | 345 kts | 223° |
| 2026-05-07 10:34 | 50.69564 | 4.00546 | 12548 ft | 346 kts | 223° |
| 2026-05-07 10:34 | 50.67769 | 3.97990 | 13188 ft | 349 kts | 223° |
| 2026-05-07 10:34 | 50.65956 | 3.95416 | 13778 ft | 352 kts | 223° |
| 2026-05-07 10:34 | 50.64126 | 3.92823 | 14387 ft | 355 kts | 223° |
| 2026-05-07 10:35 | 50.62281 | 3.90214 | 14972 ft | 358 kts | 223° |
| 2026-05-07 10:35 | 50.60421 | 3.87583 | 15540 ft | 360 kts | 223° |
| 2026-05-07 10:35 | 50.58537 | 3.84946 | 16096 ft | 363 kts | 220° |
| 2026-05-07 10:35 | 50.56436 | 3.82707 | 16622 ft | 367 kts | 209° |
| 2026-05-07 10:36 | 50.54105 | 3.81030 | 17148 ft | 370 kts | 204° |
| 2026-05-07 10:36 | 50.51731 | 3.79423 | 17656 ft | 373 kts | 204° |
| 2026-05-07 10:36 | 50.49341 | 3.77796 | 18171 ft | 375 kts | 204° |
| 2026-05-07 10:36 | 50.46935 | 3.76153 | 18667 ft | 378 kts | 204° |
| 2026-05-07 10:37 | 50.44517 | 3.74504 | 19148 ft | 380 kts | 204° |
| 2026-05-07 10:37 | 50.42086 | 3.72842 | 19620 ft | 383 kts | 204° |
| 2026-05-07 10:37 | 50.39631 | 3.71164 | 20092 ft | 385 kts | 204° |
| 2026-05-07 10:37 | 50.37166 | 3.69489 | 20577 ft | 388 kts | 204° |
| 2026-05-07 10:38 | 50.34684 | 3.67809 | 21030 ft | 390 kts | 204° |
| 2026-05-07 10:38 | 50.32180 | 3.66117 | 21478 ft | 393 kts | 204° |
| 2026-05-07 10:38 | 50.29695 | 3.64442 | 21903 ft | 395 kts | 204° |
| 2026-05-07 10:38 | 50.27160 | 3.62733 | 22324 ft | 397 kts | 204° |
| 2026-05-07 10:39 | 50.24615 | 3.61016 | 22733 ft | 400 kts | 204° |
| 2026-05-07 10:39 | 50.22056 | 3.59290 | 23130 ft | 402 kts | 204° |
| 2026-05-07 10:39 | 50.19479 | 3.57556 | 23520 ft | 404 kts | 204° |
| 2026-05-07 10:39 | 50.16891 | 3.55821 | 23899 ft | 406 kts | 204° |
| 2026-05-07 10:40 | 50.14287 | 3.54076 | 24263 ft | 408 kts | 204° |
| 2026-05-07 10:40 | 50.11669 | 3.52320 | 24616 ft | 410 kts | 204° |
| 2026-05-07 10:40 | 50.09036 | 3.50556 | 24932 ft | 413 kts | 204° |
| 2026-05-07 10:40 | 50.06391 | 3.48784 | 25246 ft | 415 kts | 204° |
| 2026-05-07 10:41 | 50.03761 | 3.47027 | 25560 ft | 417 kts | 204° |
| 2026-05-07 10:41 | 50.01085 | 3.45245 | 25848 ft | 419 kts | 204° |
| 2026-05-07 10:41 | 49.98397 | 3.43461 | 26143 ft | 421 kts | 204° |
| 2026-05-07 10:41 | 49.95690 | 3.41664 | 26433 ft | 423 kts | 204° |
| 2026-05-07 10:42 | 49.92977 | 3.39862 | 26723 ft | 425 kts | 204° |
| 2026-05-07 10:42 | 49.90252 | 3.38051 | 27006 ft | 427 kts | 204° |
| 2026-05-07 10:42 | 49.87514 | 3.36233 | 27270 ft | 428 kts | 204° |
| 2026-05-07 10:42 | 49.84767 | 3.34416 | 27534 ft | 430 kts | 204° |
| 2026-05-07 10:43 | 49.82008 | 3.32593 | 27789 ft | 432 kts | 204° |
| 2026-05-07 10:43 | 49.79242 | 3.30764 | 28043 ft | 433 kts | 204° |
| 2026-05-07 10:43 | 49.76460 | 3.28924 | 28295 ft | 435 kts | 204° |
| 2026-05-07 10:43 | 49.73670 | 3.27078 | 28531 ft | 437 kts | 204° |
| 2026-05-07 10:44 | 49.70870 | 3.25233 | 28758 ft | 438 kts | 204° |
| 2026-05-07 10:44 | 49.68054 | 3.23382 | 28985 ft | 440 kts | 204° |
| 2026-05-07 10:44 | 49.65233 | 3.21529 | 29191 ft | 441 kts | 204° |
| 2026-05-07 10:44 | 49.62401 | 3.19671 | 29408 ft | 443 kts | 204° |
| 2026-05-07 10:45 | 49.59561 | 3.17809 | 29614 ft | 444 kts | 204° |
| 2026-05-07 10:45 | 49.56715 | 3.15949 | 29811 ft | 445 kts | 204° |
| 2026-05-07 10:45 | 49.53854 | 3.14087 | 30003 ft | 447 kts | 204° |
| 2026-05-07 10:45 | 49.51025 | 3.12244 | 30195 ft | 448 kts | 204° |
| 2026-05-07 10:46 | 49.48211 | 3.10181 | 30398 ft | 448 kts | 211° |
| 2026-05-07 10:46 | 49.45595 | 3.07601 | 30654 ft | 446 kts | 214° |
| 2026-05-07 10:46 | 49.43014 | 3.04956 | 30905 ft | 446 kts | 214° |
| 2026-05-07 10:46 | 49.40436 | 3.02327 | 31145 ft | 445 kts | 214° |
| 2026-05-07 10:47 | 49.37853 | 2.99704 | 31397 ft | 444 kts | 214° |
| 2026-05-07 10:47 | 49.35273 | 2.97093 | 31637 ft | 444 kts | 214° |
| 2026-05-07 10:47 | 49.32694 | 2.94492 | 31873 ft | 443 kts | 214° |
| 2026-05-07 10:47 | 49.30115 | 2.91895 | 32115 ft | 443 kts | 214° |
| 2026-05-07 10:48 | 49.27543 | 2.89305 | 32346 ft | 442 kts | 214° |
| 2026-05-07 10:48 | 49.24976 | 2.86720 | 32596 ft | 441 kts | 214° |
| 2026-05-07 10:48 | 49.22475 | 2.84197 | 32823 ft | 441 kts | 214° |
| 2026-05-07 10:48 | 49.19919 | 2.81623 | 33047 ft | 440 kts | 214° |
| 2026-05-07 10:49 | 49.17390 | 2.79081 | 33268 ft | 440 kts | 214° |
| 2026-05-07 10:49 | 49.14835 | 2.76517 | 33494 ft | 439 kts | 214° |
| 2026-05-07 10:49 | 49.12286 | 2.73961 | 33709 ft | 438 kts | 214° |
| 2026-05-07 10:49 | 49.09736 | 2.71406 | 33920 ft | 438 kts | 214° |
| 2026-05-07 10:50 | 49.07186 | 2.68859 | 34130 ft | 438 kts | 214° |
| 2026-05-07 10:50 | 49.04640 | 2.66320 | 34335 ft | 437 kts | 214° |
| 2026-05-07 10:50 | 49.02092 | 2.63786 | 34525 ft | 437 kts | 214° |
| 2026-05-07 10:50 | 48.99543 | 2.61252 | 34706 ft | 437 kts | 214° |
| 2026-05-07 10:51 | 48.97001 | 2.58723 | 34880 ft | 437 kts | 214° |
| 2026-05-07 10:51 | 48.94458 | 2.56193 | 35039 ft | 437 kts | 214° |
| 2026-05-07 10:51 | 48.89387 | 2.51144 | 35078 ft | 434 kts | 214° |
| 2026-05-07 10:52 | 48.84327 | 2.46143 | 35076 ft | 434 kts | 214° |
| 2026-05-07 10:52 | 48.79265 | 2.41158 | 35078 ft | 434 kts | 214° |
| 2026-05-07 10:53 | 48.74194 | 2.36168 | 35079 ft | 434 kts | 214° |
| 2026-05-07 10:53 | 48.69165 | 2.31227 | 35085 ft | 434 kts | 214° |
| 2026-05-07 10:54 | 48.64092 | 2.26261 | 35085 ft | 434 kts | 214° |
| 2026-05-07 10:54 | 48.59016 | 2.21331 | 35083 ft | 434 kts | 211° |
| 2026-05-07 10:55 | 48.53384 | 2.18049 | 35075 ft | 437 kts | 193° |
| 2026-05-07 10:55 | 48.47427 | 2.16155 | 35067 ft | 437 kts | 194° |
| 2026-05-07 10:56 | 48.41475 | 2.14229 | 35062 ft | 438 kts | 194° |
| 2026-05-07 10:56 | 48.35517 | 2.12300 | 35064 ft | 438 kts | 194° |
| 2026-05-07 10:57 | 48.29534 | 2.10566 | 35062 ft | 439 kts | 186° |
| 2026-05-07 10:57 | 48.23419 | 2.11041 | 35065 ft | 442 kts | 173° |
| 2026-05-07 10:58 | 48.17318 | 2.12332 | 35061 ft | 442 kts | 174° |
| 2026-05-07 10:58 | 48.11208 | 2.12754 | 35065 ft | 438 kts | 188° |
| 2026-05-07 10:59 | 48.05200 | 2.11594 | 35066 ft | 438 kts | 189° |
| 2026-05-07 10:59 | 47.99146 | 2.10437 | 35066 ft | 438 kts | 189° |
| 2026-05-07 11:00 | 47.93093 | 2.09291 | 35065 ft | 438 kts | 189° |
| 2026-05-07 11:00 | 47.87036 | 2.08125 | 35070 ft | 439 kts | 189° |
| 2026-05-07 11:01 | 47.80976 | 2.06970 | 35076 ft | 439 kts | 189° |
| 2026-05-07 11:01 | 47.74919 | 2.05827 | 35078 ft | 439 kts | 189° |
| 2026-05-07 11:02 | 47.68858 | 2.04677 | 35075 ft | 439 kts | 189° |
| 2026-05-07 11:02 | 47.62852 | 2.03215 | 35075 ft | 436 kts | 198° |
| 2026-05-07 11:03 | 47.57189 | 2.00053 | 35071 ft | 435 kts | 203° |
| 2026-05-07 11:03 | 47.51554 | 1.96794 | 35073 ft | 435 kts | 203° |
| 2026-05-07 11:04 | 47.45915 | 1.93546 | 35074 ft | 434 kts | 203° |
| 2026-05-07 11:04 | 47.40289 | 1.90294 | 35073 ft | 434 kts | 203° |
| 2026-05-07 11:05 | 47.34657 | 1.87047 | 35068 ft | 434 kts | 203° |
| 2026-05-07 11:05 | 47.29073 | 1.83837 | 35068 ft | 433 kts | 203° |
| 2026-05-07 11:06 | 47.23455 | 1.80624 | 35070 ft | 433 kts | 203° |
| 2026-05-07 11:06 | 47.17845 | 1.77422 | 35064 ft | 432 kts | 203° |
| 2026-05-07 11:07 | 47.12236 | 1.74260 | 35068 ft | 431 kts | 203° |
| 2026-05-07 11:07 | 47.06629 | 1.71116 | 35059 ft | 431 kts | 203° |
| 2026-05-07 11:08 | 47.01032 | 1.67980 | 35061 ft | 430 kts | 203° |
| 2026-05-07 11:08 | 46.95435 | 1.64846 | 35064 ft | 430 kts | 203° |
| 2026-05-07 11:09 | 46.89842 | 1.61720 | 35062 ft | 430 kts | 203° |
| 2026-05-07 11:09 | 46.84255 | 1.58598 | 35064 ft | 430 kts | 203° |
| 2026-05-07 11:10 | 46.78679 | 1.55488 | 35064 ft | 429 kts | 203° |
| 2026-05-07 11:10 | 46.73139 | 1.52419 | 35061 ft | 428 kts | 203° |
| 2026-05-07 11:11 | 46.67567 | 1.49337 | 35061 ft | 428 kts | 203° |
| 2026-05-07 11:11 | 46.62004 | 1.46259 | 35061 ft | 427 kts | 203° |
| 2026-05-07 11:12 | 46.56443 | 1.43196 | 35055 ft | 427 kts | 203° |
| 2026-05-07 11:12 | 46.50873 | 1.40133 | 35059 ft | 427 kts | 203° |
| 2026-05-07 11:13 | 46.45346 | 1.37091 | 35059 ft | 427 kts | 203° |
| 2026-05-07 11:13 | 46.39780 | 1.34036 | 35059 ft | 427 kts | 203° |
| 2026-05-07 11:14 | 46.34212 | 1.30994 | 35058 ft | 427 kts | 203° |
| 2026-05-07 11:14 | 46.28648 | 1.27967 | 35057 ft | 427 kts | 203° |
| 2026-05-07 11:15 | 46.23082 | 1.24934 | 35055 ft | 427 kts | 203° |
| 2026-05-07 11:15 | 46.17520 | 1.21913 | 35047 ft | 427 kts | 203° |
| 2026-05-07 11:16 | 46.11961 | 1.18904 | 35046 ft | 427 kts | 203° |
| 2026-05-07 11:16 | 46.06405 | 1.15897 | 35043 ft | 426 kts | 203° |
| 2026-05-07 11:17 | 46.00853 | 1.12898 | 35040 ft | 426 kts | 203° |
| 2026-05-07 11:17 | 45.95337 | 1.09939 | 35041 ft | 425 kts | 203° |
| 2026-05-07 11:18 | 45.89803 | 1.06965 | 35043 ft | 424 kts | 203° |
| 2026-05-07 11:18 | 45.84279 | 1.03996 | 35041 ft | 423 kts | 204° |
| 2026-05-07 11:19 | 45.79262 | 0.99781 | 35038 ft | 417 kts | 222° |
| 2026-05-07 11:19 | 45.74827 | 0.94438 | 35035 ft | 416 kts | 222° |
| 2026-05-07 11:20 | 45.70390 | 0.89130 | 35032 ft | 416 kts | 221° |
| 2026-05-07 11:20 | 45.65949 | 0.83833 | 35030 ft | 416 kts | 221° |
| 2026-05-07 11:21 | 45.61599 | 0.78652 | 35033 ft | 415 kts | 221° |
| 2026-05-07 11:21 | 45.57160 | 0.73380 | 35029 ft | 415 kts | 221° |
| 2026-05-07 11:22 | 45.52720 | 0.68115 | 35026 ft | 415 kts | 221° |
| 2026-05-07 11:22 | 45.49035 | 0.63741 | 35023 ft | 415 kts | 221° |
| 2026-05-07 11:23 | 45.44597 | 0.58487 | 35023 ft | 415 kts | 221° |
| 2026-05-07 11:23 | 45.40150 | 0.53249 | 35024 ft | 415 kts | 221° |
| 2026-05-07 11:24 | 45.35702 | 0.48011 | 35025 ft | 415 kts | 221° |
| 2026-05-07 11:24 | 45.31254 | 0.42796 | 35024 ft | 414 kts | 221° |
| 2026-05-07 11:25 | 45.26796 | 0.37581 | 35023 ft | 414 kts | 221° |
| 2026-05-07 11:25 | 45.22347 | 0.32373 | 35029 ft | 414 kts | 221° |
| 2026-05-07 11:26 | 45.17902 | 0.27178 | 35031 ft | 414 kts | 221° |
| 2026-05-07 11:26 | 45.13482 | 0.22036 | 35031 ft | 414 kts | 221° |
| 2026-05-07 11:27 | 45.09030 | 0.16867 | 35036 ft | 414 kts | 221° |
| 2026-05-07 11:27 | 45.04627 | 0.11757 | 35039 ft | 414 kts | 221° |
| 2026-05-07 11:28 | 45.00127 | 0.06557 | 35040 ft | 413 kts | 221° |
| 2026-05-07 11:28 | 44.95684 | 0.01418 | 35040 ft | 413 kts | 221° |
| 2026-05-07 11:29 | 44.91241 | -0.03709 | 35041 ft | 412 kts | 220° |
| 2026-05-07 11:29 | 44.86796 | -0.08813 | 35039 ft | 412 kts | 220° |
| 2026-05-07 11:30 | 44.82350 | -0.13907 | 35031 ft | 411 kts | 220° |
| 2026-05-07 11:30 | 44.77937 | -0.18964 | 35027 ft | 411 kts | 220° |
| 2026-05-07 11:31 | 44.73498 | -0.24033 | 35026 ft | 411 kts | 220° |
| 2026-05-07 11:31 | 44.69053 | -0.29092 | 35024 ft | 411 kts | 219° |
| 2026-05-07 11:32 | 44.62027 | -0.35957 | 35023 ft | 412 kts | 209° |
| 2026-05-07 11:33 | 44.56947 | -0.39700 | 35026 ft | 412 kts | 209° |
| 2026-05-07 11:33 | 44.51874 | -0.43428 | 35024 ft | 412 kts | 209° |
| 2026-05-07 11:34 | 44.46795 | -0.47142 | 35021 ft | 411 kts | 209° |
| 2026-05-07 11:34 | 44.41723 | -0.50855 | 35020 ft | 411 kts | 209° |
| 2026-05-07 11:35 | 44.36653 | -0.54560 | 35021 ft | 411 kts | 209° |
| 2026-05-07 11:35 | 44.31611 | -0.58236 | 35023 ft | 411 kts | 209° |
| 2026-05-07 11:36 | 44.26538 | -0.61929 | 35025 ft | 411 kts | 209° |
| 2026-05-07 11:36 | 44.21460 | -0.65619 | 35023 ft | 411 kts | 209° |
| 2026-05-07 11:37 | 44.16384 | -0.69299 | 35023 ft | 411 kts | 209° |
| 2026-05-07 11:37 | 44.11305 | -0.72969 | 35022 ft | 411 kts | 209° |
| 2026-05-07 11:38 | 44.06227 | -0.76632 | 35020 ft | 411 kts | 209° |
| 2026-05-07 11:38 | 44.01159 | -0.80283 | 35020 ft | 410 kts | 209° |
| 2026-05-07 11:39 | 43.96099 | -0.83933 | 35021 ft | 410 kts | 208° |
| 2026-05-07 11:39 | 43.91040 | -0.87570 | 35027 ft | 409 kts | 208° |
| 2026-05-07 11:40 | 43.85991 | -0.91191 | 35027 ft | 408 kts | 208° |
| 2026-05-07 11:40 | 43.80982 | -0.94776 | 35023 ft | 408 kts | 208° |
| 2026-05-07 11:41 | 43.75940 | -0.98373 | 35021 ft | 407 kts | 208° |
| 2026-05-07 11:41 | 43.70900 | -1.01950 | 35013 ft | 407 kts | 208° |
| 2026-05-07 11:42 | 43.65867 | -1.05523 | 35002 ft | 407 kts | 208° |
| 2026-05-07 11:42 | 43.60837 | -1.09103 | 35006 ft | 407 kts | 208° |
| 2026-05-07 11:43 | 43.55801 | -1.12672 | 35000 ft | 406 kts | 208° |
| 2026-05-07 11:43 | 43.50774 | -1.16230 | 34987 ft | 407 kts | 208° |
| 2026-05-07 11:44 | 43.45734 | -1.19782 | 34983 ft | 407 kts | 208° |
| 2026-05-07 11:44 | 43.40694 | -1.23332 | 34987 ft | 407 kts | 208° |
| 2026-05-07 11:45 | 43.35655 | -1.26874 | 34984 ft | 407 kts | 208° |
| 2026-05-07 11:45 | 43.30612 | -1.30406 | 34979 ft | 407 kts | 208° |
| 2026-05-07 11:46 | 43.25564 | -1.33946 | 34979 ft | 407 kts | 208° |
| 2026-05-07 11:46 | 43.20528 | -1.37466 | 34975 ft | 406 kts | 208° |
| 2026-05-07 11:47 | 43.15487 | -1.40983 | 34973 ft | 406 kts | 208° |
| 2026-05-07 11:47 | 43.10478 | -1.44479 | 34972 ft | 407 kts | 208° |
| 2026-05-07 11:48 | 43.05441 | -1.47985 | 34971 ft | 406 kts | 208° |
| 2026-05-07 11:48 | 43.00407 | -1.51483 | 34970 ft | 406 kts | 208° |
| 2026-05-07 11:49 | 42.95376 | -1.54984 | 34966 ft | 405 kts | 208° |
| 2026-05-07 11:49 | 42.90350 | -1.58482 | 34969 ft | 406 kts | 208° |
| 2026-05-07 11:50 | 42.85317 | -1.61967 | 34968 ft | 405 kts | 208° |
| 2026-05-07 11:50 | 42.80283 | -1.65431 | 34967 ft | 405 kts | 208° |
| 2026-05-07 11:51 | 42.75262 | -1.68893 | 34967 ft | 405 kts | 208° |
| 2026-05-07 11:51 | 42.70234 | -1.72336 | 34969 ft | 405 kts | 207° |
| 2026-05-07 11:52 | 42.65182 | -1.75727 | 34970 ft | 404 kts | 207° |
| 2026-05-07 11:52 | 42.60144 | -1.79100 | 34971 ft | 404 kts | 207° |
| 2026-05-07 11:53 | 42.55136 | -1.82461 | 34980 ft | 404 kts | 207° |
| 2026-05-07 11:53 | 42.50094 | -1.85839 | 34980 ft | 404 kts | 207° |
| 2026-05-07 11:54 | 42.45049 | -1.89214 | 34984 ft | 404 kts | 207° |
| 2026-05-07 11:54 | 42.40008 | -1.92573 | 34993 ft | 403 kts | 207° |
| 2026-05-07 11:55 | 42.34973 | -1.95934 | 35001 ft | 404 kts | 207° |
| 2026-05-07 11:55 | 42.29933 | -1.99292 | 34985 ft | 403 kts | 207° |
| 2026-05-07 11:56 | 42.24898 | -2.02636 | 34982 ft | 403 kts | 207° |
| 2026-05-07 11:56 | 42.19862 | -2.05968 | 34986 ft | 403 kts | 207° |
| 2026-05-07 11:57 | 42.14819 | -2.09283 | 34985 ft | 403 kts | 207° |
| 2026-05-07 11:57 | 42.09813 | -2.12585 | 34984 ft | 403 kts | 207° |
| 2026-05-07 11:58 | 42.04782 | -2.15905 | 34983 ft | 403 kts | 207° |
| 2026-05-07 11:58 | 41.99756 | -2.19222 | 34984 ft | 403 kts | 207° |
| 2026-05-07 11:59 | 41.94714 | -2.22536 | 34982 ft | 402 kts | 207° |
| 2026-05-07 11:59 | 41.89681 | -2.25825 | 34980 ft | 402 kts | 206° |
| 2026-05-07 12:00 | 41.84680 | -2.29090 | 34978 ft | 402 kts | 207° |
| 2026-05-07 12:00 | 41.79643 | -2.32384 | 34981 ft | 403 kts | 206° |
| 2026-05-07 12:01 | 41.74601 | -2.35669 | 34982 ft | 403 kts | 206° |
| 2026-05-07 12:01 | 41.69549 | -2.38954 | 34983 ft | 403 kts | 206° |
| 2026-05-07 12:02 | 41.64507 | -2.42238 | 34982 ft | 403 kts | 206° |
| 2026-05-07 12:02 | 41.59459 | -2.45507 | 34982 ft | 403 kts | 206° |
| 2026-05-07 12:03 | 41.54412 | -2.48775 | 34981 ft | 403 kts | 206° |
| 2026-05-07 12:03 | 41.49398 | -2.52018 | 34988 ft | 402 kts | 206° |
| 2026-05-07 12:04 | 41.44363 | -2.55267 | 34988 ft | 402 kts | 206° |
| 2026-05-07 12:04 | 41.39331 | -2.58508 | 34985 ft | 401 kts | 206° |
| 2026-05-07 12:05 | 41.34244 | -2.61585 | 34983 ft | 402 kts | 198° |
| 2026-05-07 12:05 | 41.28757 | -2.62652 | 34979 ft | 405 kts | 180° |
| 2026-05-07 12:06 | 41.23131 | -2.62148 | 34974 ft | 406 kts | 179° |
| 2026-05-07 12:06 | 41.17495 | -2.61646 | 34971 ft | 406 kts | 179° |
| 2026-05-07 12:07 | 41.11859 | -2.61149 | 34972 ft | 405 kts | 179° |
| 2026-05-07 12:07 | 41.06228 | -2.60643 | 34972 ft | 405 kts | 179° |
| 2026-05-07 12:08 | 41.00597 | -2.60147 | 34975 ft | 406 kts | 179° |
| 2026-05-07 12:08 | 40.94958 | -2.59647 | 34977 ft | 405 kts | 179° |
| 2026-05-07 12:09 | 40.89337 | -2.59139 | 34978 ft | 405 kts | 179° |
| 2026-05-07 12:09 | 40.83721 | -2.58629 | 34977 ft | 404 kts | 179° |
| 2026-05-07 12:10 | 40.78116 | -2.58126 | 34982 ft | 403 kts | 179° |
| 2026-05-07 12:10 | 40.72516 | -2.57624 | 34980 ft | 403 kts | 179° |
| 2026-05-07 12:11 | 40.66961 | -2.57121 | 34980 ft | 402 kts | 179° |
| 2026-05-07 12:11 | 40.61381 | -2.56619 | 34979 ft | 401 kts | 179° |
| 2026-05-07 12:12 | 40.55814 | -2.56121 | 34974 ft | 401 kts | 179° |
| 2026-05-07 12:12 | 40.50250 | -2.55625 | 34975 ft | 400 kts | 179° |
| 2026-05-07 12:13 | 40.44689 | -2.55125 | 34977 ft | 400 kts | 179° |
| 2026-05-07 12:13 | 40.40038 | -2.54726 | 34976 ft | 399 kts | 182° |
| 2026-05-07 12:14 | 40.34654 | -2.55763 | 34973 ft | 393 kts | 200° |
| 2026-05-07 12:14 | 40.29554 | -2.58315 | 34970 ft | 392 kts | 201° |
| 2026-05-07 12:15 | 40.24456 | -2.60873 | 34963 ft | 392 kts | 201° |
| 2026-05-07 12:15 | 40.19357 | -2.63424 | 34959 ft | 392 kts | 201° |
| 2026-05-07 12:16 | 40.14259 | -2.65975 | 34954 ft | 392 kts | 201° |
| 2026-05-07 12:16 | 40.09163 | -2.68529 | 34953 ft | 393 kts | 201° |
| 2026-05-07 12:17 | 40.04056 | -2.71079 | 34951 ft | 393 kts | 201° |
| 2026-05-07 12:17 | 39.98983 | -2.73610 | 34949 ft | 393 kts | 202° |
| 2026-05-07 12:18 | 39.93869 | -2.76156 | 34953 ft | 393 kts | 202° |
| 2026-05-07 12:18 | 39.88744 | -2.78697 | 34945 ft | 393 kts | 202° |
| 2026-05-07 12:19 | 39.83627 | -2.81232 | 34944 ft | 394 kts | 202° |
| 2026-05-07 12:19 | 39.78498 | -2.83778 | 34942 ft | 395 kts | 202° |
| 2026-05-07 12:20 | 39.73355 | -2.86323 | 34941 ft | 396 kts | 202° |
| 2026-05-07 12:20 | 39.68232 | -2.88843 | 34941 ft | 396 kts | 202° |
| 2026-05-07 12:21 | 39.63064 | -2.91383 | 34943 ft | 396 kts | 202° |
| 2026-05-07 12:21 | 39.57893 | -2.93927 | 34946 ft | 397 kts | 202° |
| 2026-05-07 12:22 | 39.52721 | -2.96483 | 34945 ft | 398 kts | 202° |
| 2026-05-07 12:22 | 39.47544 | -2.99035 | 34950 ft | 398 kts | 202° |
| 2026-05-07 12:23 | 39.42397 | -3.01565 | 34943 ft | 398 kts | 202° |
| 2026-05-07 12:23 | 39.37206 | -3.04108 | 34941 ft | 399 kts | 202° |
| 2026-05-07 12:24 | 39.32009 | -3.06636 | 34943 ft | 399 kts | 202° |
| 2026-05-07 12:24 | 39.26803 | -3.09158 | 34937 ft | 400 kts | 202° |
| 2026-05-07 12:25 | 39.21595 | -3.11693 | 34941 ft | 400 kts | 202° |
| 2026-05-07 12:25 | 39.16403 | -3.14213 | 34942 ft | 401 kts | 203° |
| 2026-05-07 12:26 | 39.11173 | -3.16743 | 34945 ft | 401 kts | 203° |
| 2026-05-07 12:26 | 39.05943 | -3.19274 | 34942 ft | 402 kts | 203° |
| 2026-05-07 12:27 | 39.00702 | -3.21800 | 34947 ft | 403 kts | 203° |
| 2026-05-07 12:27 | 38.95446 | -3.24329 | 34951 ft | 403 kts | 203° |
| 2026-05-07 12:28 | 38.90187 | -3.26860 | 34951 ft | 404 kts | 203° |
| 2026-05-07 12:28 | 38.84922 | -3.29387 | 34953 ft | 404 kts | 203° |
| 2026-05-07 12:29 | 38.79690 | -3.31896 | 34947 ft | 404 kts | 203° |
| 2026-05-07 12:29 | 38.74420 | -3.34420 | 34945 ft | 404 kts | 204° |
| 2026-05-07 12:30 | 38.69147 | -3.36946 | 34944 ft | 405 kts | 204° |
| 2026-05-07 12:30 | 38.63864 | -3.39461 | 34940 ft | 406 kts | 204° |
| 2026-05-07 12:31 | 38.58569 | -3.41980 | 34939 ft | 406 kts | 204° |
| 2026-05-07 12:31 | 38.53276 | -3.44498 | 34938 ft | 406 kts | 204° |
| 2026-05-07 12:32 | 38.47973 | -3.47027 | 34940 ft | 407 kts | 204° |
| 2026-05-07 12:32 | 38.42659 | -3.49548 | 34938 ft | 408 kts | 205° |
| 2026-05-07 12:33 | 38.34710 | -3.53309 | 34948 ft | 409 kts | 205° |
| 2026-05-07 12:33 | 38.29367 | -3.55827 | 34944 ft | 410 kts | 205° |
| 2026-05-07 12:34 | 38.24010 | -3.58345 | 34944 ft | 410 kts | 205° |
| 2026-05-07 12:34 | 38.18658 | -3.60880 | 34945 ft | 411 kts | 205° |
| 2026-05-07 12:35 | 38.13312 | -3.63462 | 34944 ft | 410 kts | 207° |
| 2026-05-07 12:35 | 38.08091 | -3.66390 | 34949 ft | 409 kts | 210° |
| 2026-05-07 12:36 | 38.02922 | -3.69435 | 34946 ft | 409 kts | 209° |
| 2026-05-07 12:36 | 37.97728 | -3.72414 | 34946 ft | 410 kts | 209° |
| 2026-05-07 12:37 | 37.92547 | -3.75335 | 34946 ft | 410 kts | 209° |
| 2026-05-07 12:37 | 37.87325 | -3.78271 | 34950 ft | 411 kts | 209° |
| 2026-05-07 12:38 | 37.82094 | -3.81208 | 34952 ft | 411 kts | 209° |
| 2026-05-07 12:38 | 37.76866 | -3.84141 | 34950 ft | 411 kts | 209° |
| 2026-05-07 12:39 | 37.71640 | -3.87067 | 34941 ft | 411 kts | 209° |
| 2026-05-07 12:39 | 37.66406 | -3.89994 | 34942 ft | 411 kts | 209° |
| 2026-05-07 12:40 | 37.61181 | -3.92917 | 34941 ft | 410 kts | 208° |
| 2026-05-07 12:40 | 37.55964 | -3.95839 | 34942 ft | 411 kts | 209° |
| 2026-05-07 12:41 | 37.50767 | -3.98733 | 34938 ft | 411 kts | 208° |
| 2026-05-07 12:41 | 37.45540 | -4.01636 | 34944 ft | 411 kts | 209° |
| 2026-05-07 12:42 | 37.40306 | -4.04554 | 34924 ft | 411 kts | 209° |
| 2026-05-07 12:42 | 37.35054 | -4.07471 | 34929 ft | 413 kts | 210° |
| 2026-05-07 12:43 | 37.29794 | -4.10386 | 34925 ft | 413 kts | 210° |
| 2026-05-07 12:43 | 37.24513 | -4.13300 | 34930 ft | 414 kts | 210° |
| 2026-05-07 12:44 | 37.19259 | -4.16194 | 34931 ft | 415 kts | 210° |
| 2026-05-07 12:44 | 37.13970 | -4.19112 | 34930 ft | 416 kts | 210° |
| 2026-05-07 12:45 | 37.08674 | -4.22028 | 34937 ft | 416 kts | 210° |
| 2026-05-07 12:45 | 37.03375 | -4.24934 | 34931 ft | 415 kts | 210° |
| 2026-05-07 12:46 | 36.98085 | -4.27841 | 34933 ft | 416 kts | 210° |
| 2026-05-07 12:46 | 36.92780 | -4.30756 | 34941 ft | 417 kts | 210° |
| 2026-05-07 12:47 | 36.87454 | -4.33672 | 34945 ft | 418 kts | 210° |
| 2026-05-07 12:47 | 36.82140 | -4.36600 | 34963 ft | 418 kts | 213° |
| 2026-05-07 12:48 | 36.79633 | -4.38395 | 35093 ft | 414 kts | 218° |
| 2026-05-07 12:48 | 36.77233 | -4.40315 | 35268 ft | 416 kts | 218° |
| 2026-05-07 12:48 | 36.74792 | -4.42261 | 35482 ft | 416 kts | 218° |
| 2026-05-07 12:48 | 36.72354 | -4.44199 | 35684 ft | 416 kts | 218° |
| 2026-05-07 12:49 | 36.69917 | -4.46131 | 35878 ft | 415 kts | 218° |
| 2026-05-07 12:49 | 36.67480 | -4.48065 | 36069 ft | 415 kts | 218° |
| 2026-05-07 12:49 | 36.65047 | -4.49994 | 36257 ft | 414 kts | 218° |
| 2026-05-07 12:49 | 36.62616 | -4.51916 | 36432 ft | 414 kts | 218° |
| 2026-05-07 12:50 | 36.60187 | -4.53837 | 36573 ft | 414 kts | 218° |
| 2026-05-07 12:50 | 36.57760 | -4.55757 | 36744 ft | 412 kts | 218° |
| 2026-05-07 12:50 | 36.55352 | -4.57663 | 36935 ft | 409 kts | 218° |
| 2026-05-07 12:50 | 36.52962 | -4.59554 | 36973 ft | 406 kts | 218° |
| 2026-05-07 12:51 | 36.48213 | -4.63305 | 36970 ft | 404 kts | 218° |
| 2026-05-07 12:51 | 36.43467 | -4.67044 | 36970 ft | 404 kts | 218° |
| 2026-05-07 12:52 | 36.38720 | -4.70783 | 36964 ft | 403 kts | 218° |
| 2026-05-07 12:52 | 36.33984 | -4.74515 | 36962 ft | 403 kts | 218° |
| 2026-05-07 12:53 | 36.29242 | -4.78234 | 36964 ft | 403 kts | 218° |
| 2026-05-07 12:53 | 36.24498 | -4.81949 | 36968 ft | 404 kts | 218° |
| 2026-05-07 12:54 | 36.19742 | -4.85667 | 36964 ft | 404 kts | 219° |
| 2026-05-07 12:54 | 36.14988 | -4.89381 | 36964 ft | 404 kts | 218° |
| 2026-05-07 12:55 | 36.10249 | -4.93116 | 36963 ft | 404 kts | 219° |
| 2026-05-07 12:55 | 36.05547 | -4.96850 | 36964 ft | 404 kts | 219° |
| 2026-05-07 12:56 | 36.00815 | -5.00597 | 36962 ft | 404 kts | 219° |
| 2026-05-07 12:56 | 35.96074 | -5.04340 | 36962 ft | 404 kts | 219° |
| 2026-05-07 12:57 | 35.91329 | -5.08069 | 36960 ft | 404 kts | 219° |
| 2026-05-07 12:57 | 35.86595 | -5.11783 | 36959 ft | 403 kts | 219° |
| 2026-05-07 12:58 | 35.81891 | -5.15531 | 36956 ft | 401 kts | 221° |
| 2026-05-07 12:58 | 35.77420 | -5.19600 | 36949 ft | 399 kts | 224° |
| 2026-05-07 12:59 | 35.73041 | -5.23795 | 36949 ft | 399 kts | 224° |
| 2026-05-07 12:59 | 35.68625 | -5.27940 | 36951 ft | 400 kts | 224° |
| 2026-05-07 13:00 | 35.64922 | -5.31355 | 36948 ft | 400 kts | 223° |
| 2026-05-07 13:00 | 35.60460 | -5.35439 | 36945 ft | 400 kts | 223° |
| 2026-05-07 13:01 | 35.55992 | -5.39520 | 36945 ft | 400 kts | 223° |
| 2026-05-07 13:01 | 35.51526 | -5.43612 | 36954 ft | 401 kts | 223° |
| 2026-05-07 13:02 | 35.47047 | -5.47708 | 36960 ft | 401 kts | 223° |
| 2026-05-07 13:02 | 35.42571 | -5.51788 | 36964 ft | 401 kts | 223° |
| 2026-05-07 13:03 | 35.38093 | -5.55869 | 36966 ft | 401 kts | 223° |
| 2026-05-07 13:03 | 35.33612 | -5.59948 | 36967 ft | 401 kts | 223° |
| 2026-05-07 13:04 | 35.29124 | -5.64028 | 36970 ft | 402 kts | 223° |
| 2026-05-07 13:04 | 35.24641 | -5.68103 | 36970 ft | 401 kts | 223° |
| 2026-05-07 13:05 | 35.20156 | -5.72169 | 36968 ft | 401 kts | 223° |
| 2026-05-07 13:05 | 35.15694 | -5.76205 | 36971 ft | 401 kts | 223° |
| 2026-05-07 13:06 | 35.11204 | -5.80250 | 36967 ft | 400 kts | 223° |
| 2026-05-07 13:06 | 35.06719 | -5.84294 | 36960 ft | 400 kts | 223° |
| 2026-05-07 13:07 | 35.02244 | -5.88324 | 36957 ft | 400 kts | 223° |
| 2026-05-07 13:07 | 34.97750 | -5.92365 | 36961 ft | 401 kts | 223° |
| 2026-05-07 13:08 | 34.93260 | -5.96409 | 36960 ft | 401 kts | 223° |
| 2026-05-07 13:08 | 34.88763 | -6.00446 | 36963 ft | 401 kts | 223° |
| 2026-05-07 13:09 | 34.84296 | -6.04462 | 36960 ft | 402 kts | 223° |
| 2026-05-07 13:09 | 34.79798 | -6.08503 | 36956 ft | 403 kts | 223° |
| 2026-05-07 13:10 | 34.75274 | -6.12541 | 36957 ft | 403 kts | 223° |
| 2026-05-07 13:10 | 34.70746 | -6.16567 | 36958 ft | 403 kts | 223° |
| 2026-05-07 13:11 | 34.66248 | -6.20572 | 36959 ft | 403 kts | 223° |
| 2026-05-07 13:11 | 34.61719 | -6.24608 | 36962 ft | 404 kts | 223° |
| 2026-05-07 13:12 | 34.57185 | -6.28640 | 36962 ft | 404 kts | 223° |
| 2026-05-07 13:12 | 34.52647 | -6.32675 | 36960 ft | 404 kts | 223° |
| 2026-05-07 13:13 | 34.48112 | -6.36693 | 36955 ft | 404 kts | 223° |
| 2026-05-07 13:13 | 34.43569 | -6.40706 | 36953 ft | 404 kts | 223° |
| 2026-05-07 13:14 | 34.39063 | -6.44695 | 36951 ft | 404 kts | 222° |
| 2026-05-07 13:14 | 34.34526 | -6.48703 | 36951 ft | 404 kts | 222° |
| 2026-05-07 13:15 | 34.29983 | -6.52710 | 36949 ft | 404 kts | 222° |
| 2026-05-07 13:15 | 34.25430 | -6.56722 | 36948 ft | 404 kts | 222° |
| 2026-05-07 13:16 | 34.20878 | -6.60722 | 36950 ft | 405 kts | 222° |
| 2026-05-07 13:16 | 34.16317 | -6.64718 | 36949 ft | 405 kts | 222° |
| 2026-05-07 13:17 | 34.11758 | -6.68711 | 36951 ft | 405 kts | 222° |
| 2026-05-07 13:17 | 34.07232 | -6.72685 | 36948 ft | 405 kts | 222° |
| 2026-05-07 13:18 | 34.02656 | -6.76649 | 36944 ft | 406 kts | 221° |
| 2026-05-07 13:18 | 33.97985 | -6.80480 | 36944 ft | 407 kts | 220° |
| 2026-05-07 13:19 | 33.93282 | -6.84285 | 36944 ft | 407 kts | 220° |
| 2026-05-07 13:19 | 33.88629 | -6.88083 | 36940 ft | 406 kts | 220° |
| 2026-05-07 13:20 | 33.83954 | -6.91922 | 36942 ft | 407 kts | 220° |
| 2026-05-07 13:20 | 33.79273 | -6.95759 | 36946 ft | 408 kts | 220° |
| 2026-05-07 13:21 | 33.74576 | -6.99597 | 36951 ft | 408 kts | 220° |
| 2026-05-07 13:21 | 33.69871 | -7.03429 | 36957 ft | 408 kts | 220° |
| 2026-05-07 13:22 | 33.65171 | -7.07257 | 36961 ft | 408 kts | 220° |
| 2026-05-07 13:22 | 33.60473 | -7.11095 | 36964 ft | 409 kts | 220° |
| 2026-05-07 13:23 | 33.55763 | -7.14931 | 36969 ft | 409 kts | 220° |
| 2026-05-07 13:23 | 33.51054 | -7.18747 | 36969 ft | 409 kts | 220° |
| 2026-05-07 13:24 | 33.46340 | -7.22562 | 36969 ft | 409 kts | 220° |
| 2026-05-07 13:24 | 33.41632 | -7.26378 | 36963 ft | 409 kts | 220° |
| 2026-05-07 13:25 | 33.36917 | -7.30196 | 36960 ft | 409 kts | 220° |
| 2026-05-07 13:25 | 33.32201 | -7.34015 | 36956 ft | 409 kts | 220° |
| 2026-05-07 13:26 | 33.27479 | -7.37828 | 36956 ft | 409 kts | 219° |
| 2026-05-07 13:26 | 33.22755 | -7.41631 | 36953 ft | 409 kts | 219° |
| 2026-05-07 13:27 | 33.18023 | -7.45427 | 36952 ft | 409 kts | 219° |
| 2026-05-07 13:27 | 33.13296 | -7.49222 | 36949 ft | 410 kts | 219° |
| 2026-05-07 13:28 | 33.08499 | -7.52918 | 36949 ft | 412 kts | 217° |
| 2026-05-07 13:28 | 33.03582 | -7.56345 | 36946 ft | 412 kts | 216° |
| 2026-05-07 13:29 | 32.98609 | -7.59759 | 36943 ft | 412 kts | 216° |
| 2026-05-07 13:29 | 32.93651 | -7.63216 | 36943 ft | 413 kts | 216° |
| 2026-05-07 13:30 | 32.88703 | -7.66697 | 36945 ft | 413 kts | 216° |
| 2026-05-07 13:30 | 32.83756 | -7.70180 | 36949 ft | 413 kts | 216° |
| 2026-05-07 13:31 | 32.78800 | -7.73657 | 36951 ft | 413 kts | 216° |
| 2026-05-07 13:31 | 32.73845 | -7.77125 | 36953 ft | 414 kts | 216° |
| 2026-05-07 13:32 | 32.68876 | -7.80596 | 36951 ft | 414 kts | 216° |
| 2026-05-07 13:32 | 32.63936 | -7.84039 | 36948 ft | 414 kts | 216° |
| 2026-05-07 13:33 | 32.58967 | -7.87498 | 36945 ft | 414 kts | 216° |
| 2026-05-07 13:33 | 32.54007 | -7.90956 | 36943 ft | 414 kts | 216° |
| 2026-05-07 13:34 | 32.46554 | -7.96135 | 36939 ft | 414 kts | 216° |
| 2026-05-07 13:35 | 32.41581 | -7.99581 | 36938 ft | 414 kts | 215° |
| 2026-05-07 13:35 | 32.36594 | -8.03037 | 36941 ft | 415 kts | 215° |
| 2026-05-07 13:36 | 32.31632 | -8.06469 | 36944 ft | 415 kts | 215° |
| 2026-05-07 13:36 | 32.26647 | -8.09911 | 36942 ft | 415 kts | 215° |
| 2026-05-07 13:37 | 32.21654 | -8.13360 | 36941 ft | 415 kts | 215° |
| 2026-05-07 13:37 | 32.16650 | -8.16773 | 36942 ft | 417 kts | 211° |
| 2026-05-07 13:38 | 32.11053 | -8.18766 | 36941 ft | 431 kts | 191° |
| 2026-05-07 13:38 | 32.08026 | -8.18834 | 36939 ft | 439 kts | 180° |
| 2026-05-07 13:38 | 32.04986 | -8.18338 | 36938 ft | 442 kts | 176° |
| 2026-05-07 13:39 | 31.98901 | -8.17212 | 36936 ft | 443 kts | 176° |
| 2026-05-07 13:39 | 31.92806 | -8.16095 | 36938 ft | 443 kts | 176° |
| 2026-05-07 13:40 | 31.86698 | -8.14976 | 36941 ft | 443 kts | 176° |
| 2026-05-07 13:40 | 31.80605 | -8.13853 | 36941 ft | 443 kts | 176° |
| 2026-05-07 13:40 | 31.77553 | -8.13291 | 36724 ft | 443 kts | 176° |
| 2026-05-07 13:41 | 31.74510 | -8.12733 | 36476 ft | 443 kts | 176° |
| 2026-05-07 13:41 | 31.71460 | -8.12174 | 36226 ft | 444 kts | 176° |
| 2026-05-07 13:41 | 31.68439 | -8.11634 | 35581 ft | 447 kts | 179° |
| 2026-05-07 13:41 | 31.65352 | -8.11530 | 34912 ft | 440 kts | 190° |
| 2026-05-07 13:42 | 31.62369 | -8.12059 | 34424 ft | 429 kts | 200° |
| 2026-05-07 13:42 | 31.59572 | -8.13161 | 33901 ft | 419 kts | 210° |
| 2026-05-07 13:42 | 31.57045 | -8.14776 | 33384 ft | 409 kts | 219° |
| 2026-05-07 13:42 | 31.54830 | -8.16813 | 32897 ft | 402 kts | 226° |
| 2026-05-07 13:43 | 31.52724 | -8.18952 | 32404 ft | 399 kts | 226° |
| 2026-05-07 13:43 | 31.50626 | -8.21068 | 31915 ft | 397 kts | 225° |
| 2026-05-07 13:43 | 31.48539 | -8.23165 | 31439 ft | 394 kts | 226° |
| 2026-05-07 13:43 | 31.46462 | -8.25252 | 30956 ft | 392 kts | 225° |
| 2026-05-07 13:44 | 31.44401 | -8.27324 | 30481 ft | 389 kts | 226° |
| 2026-05-07 13:44 | 31.42355 | -8.29384 | 30027 ft | 387 kts | 226° |
| 2026-05-07 13:44 | 31.40320 | -8.31428 | 29551 ft | 384 kts | 226° |
| 2026-05-07 13:44 | 31.38298 | -8.33456 | 29101 ft | 381 kts | 225° |
| 2026-05-07 13:45 | 31.36287 | -8.35471 | 28658 ft | 379 kts | 225° |
| 2026-05-07 13:45 | 31.34315 | -8.37445 | 28229 ft | 376 kts | 225° |
| 2026-05-07 13:45 | 31.32329 | -8.39430 | 27798 ft | 374 kts | 225° |
| 2026-05-07 13:45 | 31.30359 | -8.41401 | 27368 ft | 371 kts | 225° |
| 2026-05-07 13:46 | 31.28406 | -8.43355 | 26960 ft | 368 kts | 225° |
| 2026-05-07 13:46 | 31.26465 | -8.45297 | 26548 ft | 365 kts | 225° |
| 2026-05-07 13:46 | 31.24538 | -8.47222 | 26100 ft | 363 kts | 225° |
| 2026-05-07 13:46 | 31.22625 | -8.49135 | 25666 ft | 361 kts | 225° |
| 2026-05-07 13:47 | 31.20721 | -8.51048 | 25219 ft | 360 kts | 225° |
| 2026-05-07 13:47 | 31.18832 | -8.52952 | 24765 ft | 358 kts | 225° |
| 2026-05-07 13:47 | 31.16951 | -8.54850 | 24306 ft | 356 kts | 224° |
| 2026-05-07 13:47 | 31.15109 | -8.56709 | 23846 ft | 353 kts | 225° |
| 2026-05-07 13:48 | 31.13254 | -8.58575 | 23380 ft | 352 kts | 224° |
| 2026-05-07 13:48 | 31.11399 | -8.60434 | 22906 ft | 351 kts | 224° |
| 2026-05-07 13:48 | 31.09549 | -8.62291 | 22433 ft | 350 kts | 224° |
| 2026-05-07 13:48 | 31.07707 | -8.64140 | 21958 ft | 348 kts | 224° |
| 2026-05-07 13:49 | 31.05872 | -8.65977 | 21487 ft | 347 kts | 224° |
| 2026-05-07 13:49 | 31.04044 | -8.67803 | 21037 ft | 346 kts | 224° |
| 2026-05-07 13:49 | 31.02221 | -8.69625 | 20578 ft | 344 kts | 224° |
| 2026-05-07 13:49 | 31.00412 | -8.71433 | 20133 ft | 342 kts | 224° |
| 2026-05-07 13:50 | 30.98608 | -8.73238 | 19691 ft | 341 kts | 224° |
| 2026-05-07 13:50 | 30.96813 | -8.75036 | 19245 ft | 339 kts | 224° |
| 2026-05-07 13:50 | 30.95024 | -8.76826 | 18785 ft | 338 kts | 224° |
| 2026-05-07 13:50 | 30.93845 | -8.78002 | 18497 ft | 336 kts | 224° |
| 2026-05-07 13:51 | 30.92071 | -8.79771 | 18060 ft | 335 kts | 223° |
| 2026-05-07 13:51 | 30.90302 | -8.81535 | 17629 ft | 334 kts | 223° |
| 2026-05-07 13:51 | 30.88539 | -8.83288 | 17193 ft | 333 kts | 223° |
| 2026-05-07 13:51 | 30.86775 | -8.85022 | 16763 ft | 332 kts | 223° |
| 2026-05-07 13:52 | 30.85007 | -8.86751 | 16342 ft | 331 kts | 223° |
| 2026-05-07 13:52 | 30.83245 | -8.88471 | 15909 ft | 330 kts | 222° |
| 2026-05-07 13:52 | 30.81485 | -8.90190 | 15497 ft | 330 kts | 222° |
| 2026-05-07 13:52 | 30.79732 | -8.91903 | 15080 ft | 328 kts | 222° |
| 2026-05-07 13:53 | 30.77983 | -8.93612 | 14660 ft | 327 kts | 222° |
| 2026-05-07 13:53 | 30.76243 | -8.95308 | 14262 ft | 324 kts | 221° |
| 2026-05-07 13:53 | 30.74518 | -8.96986 | 13838 ft | 323 kts | 222° |
| 2026-05-07 13:53 | 30.72820 | -8.98641 | 13426 ft | 322 kts | 222° |
| 2026-05-07 13:54 | 30.71108 | -9.00312 | 13005 ft | 320 kts | 222° |
| 2026-05-07 13:54 | 30.69408 | -9.01972 | 12594 ft | 319 kts | 221° |
| 2026-05-07 13:54 | 30.67714 | -9.03625 | 12210 ft | 316 kts | 221° |
| 2026-05-07 13:54 | 30.66058 | -9.05240 | 12079 ft | 305 kts | 221° |
| 2026-05-07 13:55 | 30.64452 | -9.06803 | 11863 ft | 298 kts | 221° |
| 2026-05-07 13:55 | 30.62872 | -9.08341 | 11539 ft | 295 kts | 221° |
| 2026-05-07 13:55 | 30.61308 | -9.09870 | 11156 ft | 294 kts | 221° |
| 2026-05-07 13:55 | 30.59751 | -9.11401 | 10768 ft | 293 kts | 221° |
| 2026-05-07 13:56 | 30.58208 | -9.12920 | 10145 ft | 289 kts | 221° |
| 2026-05-07 13:56 | 30.56676 | -9.14428 | 9462 ft | 288 kts | 221° |
| 2026-05-07 13:56 | 30.55147 | -9.15930 | 8943 ft | 290 kts | 221° |
| 2026-05-07 13:56 | 30.53610 | -9.17436 | 8552 ft | 288 kts | 220° |
| 2026-05-07 13:57 | 30.51878 | -9.18579 | 8154 ft | 287 kts | 194° |
| 2026-05-07 13:57 | 30.49889 | -9.18543 | 7629 ft | 292 kts | 161° |
| 2026-05-07 13:57 | 30.48204 | -9.17283 | 7184 ft | 293 kts | 135° |
| 2026-05-07 13:57 | 30.46857 | -9.15546 | 6882 ft | 287 kts | 133° |
| 2026-05-07 13:58 | 30.45418 | -9.13953 | 6418 ft | 284 kts | 142° |
| 2026-05-07 13:58 | 30.43807 | -9.12726 | 6130 ft | 266 kts | 153° |
| 2026-05-07 13:58 | 30.42202 | -9.11845 | 6005 ft | 245 kts | 159° |
| 2026-05-07 13:58 | 30.40639 | -9.11159 | 5621 ft | 239 kts | 162° |
| 2026-05-07 13:59 | 30.39072 | -9.10595 | 5336 ft | 234 kts | 166° |
| 2026-05-07 13:59 | 30.37500 | -9.10138 | 5231 ft | 231 kts | 169° |
| 2026-05-07 13:59 | 30.35949 | -9.10023 | 5168 ft | 217 kts | 188° |
| 2026-05-07 13:59 | 30.34538 | -9.10434 | 5002 ft | 209 kts | 205° |
| 2026-05-07 14:00 | 30.33339 | -9.11279 | 4867 ft | 196 kts | 222° |
| 2026-05-07 14:00 | 30.32449 | -9.12420 | 4716 ft | 187 kts | 237° |
| 2026-05-07 14:00 | 30.31872 | -9.13754 | 4535 ft | 185 kts | 252° |
| 2026-05-07 14:00 | 30.31624 | -9.15216 | 4313 ft | 186 kts | 267° |
| 2026-05-07 14:01 | 30.31644 | -9.16707 | 4083 ft | 185 kts | 272° |
| 2026-05-07 14:01 | 30.31683 | -9.18191 | 3849 ft | 184 kts | 272° |
| 2026-05-07 14:01 | 30.31723 | -9.19671 | 3608 ft | 184 kts | 272° |
| 2026-05-07 14:01 | 30.31761 | -9.21147 | 3350 ft | 183 kts | 272° |
| 2026-05-07 14:02 | 30.31799 | -9.22622 | 3104 ft | 183 kts | 272° |
| 2026-05-07 14:02 | 30.31836 | -9.24096 | 2858 ft | 182 kts | 272° |
| 2026-05-07 14:02 | 30.31873 | -9.25540 | 2622 ft | 181 kts | 272° |
| 2026-05-07 14:02 | 30.31909 | -9.26986 | 2386 ft | 179 kts | 272° |
| 2026-05-07 14:03 | 30.31946 | -9.28418 | 2145 ft | 177 kts | 271° |
| 2026-05-07 14:03 | 30.31980 | -9.29834 | 1905 ft | 176 kts | 271° |
| 2026-05-07 14:03 | 30.32016 | -9.31215 | 1685 ft | 161 kts | 270° |
| 2026-05-07 14:03 | 30.32050 | -9.32432 | 1486 ft | 145 kts | 270° |
| 2026-05-07 14:04 | 30.32103 | -9.33593 | 1325 ft | 142 kts | 271° |
| 2026-05-07 14:04 | 30.32136 | -9.34718 | 1150 ft | 138 kts | 269° |
| 2026-05-07 14:04 | 30.32149 | -9.35827 | 958 ft | 139 kts | 269° |
| 2026-05-07 14:04 | 30.32178 | -9.36968 | 784 ft | 143 kts | 269° |
| 2026-05-07 14:05 | 30.32199 | -9.38117 | 562 ft | 141 kts | 270° |
| 2026-05-07 14:05 | 30.32217 | -9.39228 | 366 ft | 135 kts | 270° |
| 2026-05-07 14:05 | 30.32237 | -9.40257 | 247 ft | 113 kts | 270° |
| 2026-05-07 14:05 | 30.32253 | -9.40977 | 238 ft | 60 kts | 271° |
| 2026-05-07 14:06 | 30.32323 | -9.41264 | 237 ft | 31 kts | 301° |
| 2026-05-07 14:06 | 30.32418 | -9.41457 | 230 ft | 25 kts | 300° |
| 2026-05-07 14:06 | 30.32543 | -9.41515 | 229 ft | 17 kts | 2° |
| 2026-05-07 14:06 | 30.32662 | -9.41517 | 229 ft | 17 kts | 360° |
| 2026-05-07 14:07 | 30.32753 | -9.41516 | 231 ft | 12 kts | 1° |
| 2026-05-07 14:07 | 30.32814 | -9.41481 | 230 ft | 9 kts | 65° |
| 2026-05-07 14:07 | 30.32819 | -9.41421 | 232 ft | 6 kts | 89° |
| 2026-05-07 14:07 | 30.32819 | -9.41381 | 231 ft | 4 kts | 91° |
| 2026-05-07 14:08 | 30.32816 | -9.41300 | 232 ft | 15 kts | 91° |
| 2026-05-07 14:08 | 30.32813 | -9.41191 | 234 ft | 12 kts | 91° |
| 2026-05-07 14:08 | 30.32811 | -9.41105 | 235 ft | 9 kts | 92° |
| 2026-05-07 14:08 | 30.32835 | -9.41059 | 236 ft | 6 kts | 12° |
| 2026-05-07 14:09 | 30.32872 | -9.41060 | 236 ft | 4 kts | 334° |
| 2026-05-07 14:09 | 30.32892 | -9.41084 | 236 ft | 4 kts | 314° |
| 2026-05-07 14:09 | 30.32908 | -9.41104 | 235 ft | 0 kts | 314° |